<?xml version="1.0" encoding="UTF-8" standalone="no" ?>
<gpx xmlns="http://www.topografix.com/GPX/1/1" xmlns:xsi="http://www.w3.org/2001/XMLSchema-instance" xsi:schemaLocation="http://www.topografix.com/GPX/1/1 http://www.topografix.com/GPX/1/1/gpx.xsd" version="1.1" creator="VisuGPX - https://www.visugpx.com">
  <metadata>
    <name>GR20 en CORSE. Du Nord au Sud. Etape 8</name>
    <desc><![CDATA[LE GR 20 de Petra Piana à Onda. Le guide LEPERE EDITIONS.]]></desc>
  </metadata>
  <trk>
    <name><![CDATA[4204154-gr20]]></name>
    <extensions>
      <line xmlns="http://www.topografix.com/GPX/gpx_style/0/2">
        <color>0000FF</color>
        <opacity>1</opacity>
        <width>4</width>
      </line>
    </extensions>
    <trkseg>
      <trkpt lat="42.19846" lon="9.05012">
        <ele>1886</ele>
        <time>2020-06-02T11:11:04Z</time>
      </trkpt>
      <trkpt lat="42.19853" lon="9.05068">
        <ele>1874</ele>
        <time>2020-06-02T11:12:01Z</time>
      </trkpt>
      <trkpt lat="42.19813" lon="9.05175">
        <ele>1845</ele>
        <time>2020-06-02T11:13:59Z</time>
      </trkpt>
      <trkpt lat="42.19794" lon="9.05104">
        <ele>1847</ele>
        <time>2020-06-02T11:15:14Z</time>
      </trkpt>
      <trkpt lat="42.19765" lon="9.05053">
        <ele>1845</ele>
        <time>2020-06-02T11:16:17Z</time>
      </trkpt>
      <trkpt lat="42.19733" lon="9.05063">
        <ele>1828</ele>
        <time>2020-06-02T11:17:01Z</time>
      </trkpt>
      <trkpt lat="42.19717" lon="9.05113">
        <ele>1812</ele>
        <time>2020-06-02T11:17:55Z</time>
      </trkpt>
      <trkpt lat="42.197" lon="9.05083">
        <ele>1806</ele>
        <time>2020-06-02T11:18:32Z</time>
      </trkpt>
      <trkpt lat="42.19668" lon="9.05089">
        <ele>1788</ele>
        <time>2020-06-02T11:19:15Z</time>
      </trkpt>
      <trkpt lat="42.19652" lon="9.05132">
        <ele>1772</ele>
        <time>2020-06-02T11:20:03Z</time>
      </trkpt>
      <trkpt lat="42.1963" lon="9.05162">
        <ele>1755</ele>
        <time>2020-06-02T11:20:45Z</time>
      </trkpt>
      <trkpt lat="42.19617" lon="9.05175">
        <ele>1745</ele>
        <time>2020-06-02T11:21:06Z</time>
      </trkpt>
      <trkpt lat="42.19608" lon="9.05201">
        <ele>1734</ele>
        <time>2020-06-02T11:21:35Z</time>
      </trkpt>
      <trkpt lat="42.19587" lon="9.05227">
        <ele>1717</ele>
        <time>2020-06-02T11:22:13Z</time>
      </trkpt>
      <trkpt lat="42.19568" lon="9.05278">
        <ele>1694</ele>
        <time>2020-06-02T11:23:09Z</time>
      </trkpt>
      <trkpt lat="42.19614" lon="9.05299">
        <ele>1713</ele>
        <time>2020-06-02T11:24:14Z</time>
      </trkpt>
      <trkpt lat="42.19576" lon="9.05302">
        <ele>1691</ele>
        <time>2020-06-02T11:25:05Z</time>
      </trkpt>
      <trkpt lat="42.19552" lon="9.05334">
        <ele>1673</ele>
        <time>2020-06-02T11:25:50Z</time>
      </trkpt>
      <trkpt lat="42.19522" lon="9.05347">
        <ele>1657</ele>
        <time>2020-06-02T11:26:32Z</time>
      </trkpt>
      <trkpt lat="42.19512" lon="9.05411">
        <ele>1634</ele>
        <time>2020-06-02T11:27:36Z</time>
      </trkpt>
      <trkpt lat="42.19492" lon="9.05452">
        <ele>1620</ele>
        <time>2020-06-02T11:28:25Z</time>
      </trkpt>
      <trkpt lat="42.19484" lon="9.05493">
        <ele>1612</ele>
        <time>2020-06-02T11:29:07Z</time>
      </trkpt>
      <trkpt lat="42.19492" lon="9.05533">
        <ele>1604</ele>
        <time>2020-06-02T11:29:48Z</time>
      </trkpt>
      <trkpt lat="42.19535" lon="9.05553">
        <ele>1615</ele>
        <time>2020-06-02T11:30:49Z</time>
      </trkpt>
      <trkpt lat="42.19533" lon="9.05666">
        <ele>1589</ele>
        <time>2020-06-02T11:32:40Z</time>
      </trkpt>
      <trkpt lat="42.19541" lon="9.05718">
        <ele>1569</ele>
        <time>2020-06-02T11:33:33Z</time>
      </trkpt>
      <trkpt lat="42.19506" lon="9.05765">
        <ele>1539</ele>
        <time>2020-06-02T11:34:39Z</time>
      </trkpt>
      <trkpt lat="42.19516" lon="9.05845">
        <ele>1508</ele>
        <time>2020-06-02T11:35:59Z</time>
      </trkpt>
      <trkpt lat="42.19531" lon="9.05879">
        <ele>1501</ele>
        <time>2020-06-02T11:36:38Z</time>
      </trkpt>
      <trkpt lat="42.19511" lon="9.05913">
        <ele>1487</ele>
        <time>2020-06-02T11:37:21Z</time>
      </trkpt>
      <trkpt lat="42.1956" lon="9.0593">
        <ele>1492</ele>
        <time>2020-06-02T11:38:28Z</time>
      </trkpt>
      <trkpt lat="42.19551" lon="9.05993">
        <ele>1475</ele>
        <time>2020-06-02T11:39:32Z</time>
      </trkpt>
      <trkpt lat="42.19549" lon="9.06089">
        <ele>1459</ele>
        <time>2020-06-02T11:41:07Z</time>
      </trkpt>
      <trkpt lat="42.19614" lon="9.06175">
        <ele>1468</ele>
        <time>2020-06-02T11:43:08Z</time>
      </trkpt>
      <trkpt lat="42.19614" lon="9.06241">
        <ele>1461</ele>
        <time>2020-06-02T11:44:14Z</time>
      </trkpt>
      <trkpt lat="42.19608" lon="9.06306">
        <ele>1460</ele>
        <time>2020-06-02T11:45:18Z</time>
      </trkpt>
      <trkpt lat="42.19587" lon="9.06332">
        <ele>1449</ele>
        <time>2020-06-02T11:45:56Z</time>
      </trkpt>
      <trkpt lat="42.19546" lon="9.06344">
        <ele>1432</ele>
        <time>2020-06-02T11:46:52Z</time>
      </trkpt>
      <trkpt lat="42.19524" lon="9.06338">
        <ele>1421</ele>
        <time>2020-06-02T11:47:22Z</time>
      </trkpt>
      <trkpt lat="42.19493" lon="9.06353">
        <ele>1409</ele>
        <time>2020-06-02T11:48:06Z</time>
      </trkpt>
      <trkpt lat="42.19466" lon="9.06353">
        <ele>1397</ele>
        <time>2020-06-02T11:48:42Z</time>
      </trkpt>
      <trkpt lat="42.19446" lon="9.06349">
        <ele>1388</ele>
        <time>2020-06-02T11:49:09Z</time>
      </trkpt>
      <trkpt lat="42.19427" lon="9.06362">
        <ele>1382</ele>
        <time>2020-06-02T11:49:38Z</time>
      </trkpt>
      <trkpt lat="42.19358" lon="9.0637">
        <ele>1362</ele>
        <time>2020-06-02T11:51:10Z</time>
      </trkpt>
      <trkpt lat="42.1933" lon="9.06379">
        <ele>1355</ele>
        <time>2020-06-02T11:51:48Z</time>
      </trkpt>
      <trkpt lat="42.19295" lon="9.06482">
        <ele>1346</ele>
        <time>2020-06-02T11:53:40Z</time>
      </trkpt>
      <trkpt lat="42.19242" lon="9.06596">
        <ele>1328</ele>
        <time>2020-06-02T11:55:54Z</time>
      </trkpt>
      <trkpt lat="42.19201" lon="9.06643">
        <ele>1319</ele>
        <time>2020-06-02T11:57:05Z</time>
      </trkpt>
      <trkpt lat="42.1911" lon="9.06759">
        <ele>1296</ele>
        <time>2020-06-02T11:59:52Z</time>
      </trkpt>
      <trkpt lat="42.19058" lon="9.06864">
        <ele>1287</ele>
        <time>2020-06-02T12:01:57Z</time>
      </trkpt>
      <trkpt lat="42.19047" lon="9.06999">
        <ele>1275</ele>
        <time>2020-06-02T12:04:12Z</time>
      </trkpt>
      <trkpt lat="42.19028" lon="9.07053">
        <ele>1268</ele>
        <time>2020-06-02T12:05:11Z</time>
      </trkpt>
      <trkpt lat="42.18975" lon="9.07147">
        <ele>1261</ele>
        <time>2020-06-02T12:07:07Z</time>
      </trkpt>
      <trkpt lat="42.18937" lon="9.07239">
        <ele>1249</ele>
        <time>2020-06-02T12:08:52Z</time>
      </trkpt>
      <trkpt lat="42.18904" lon="9.07362">
        <ele>1238</ele>
        <time>2020-06-02T12:11:01Z</time>
      </trkpt>
      <trkpt lat="42.18861" lon="9.07488">
        <ele>1238</ele>
        <time>2020-06-02T12:13:18Z</time>
      </trkpt>
      <trkpt lat="42.18808" lon="9.07542">
        <ele>1229</ele>
        <time>2020-06-02T12:14:47Z</time>
      </trkpt>
      <trkpt lat="42.1876" lon="9.07548">
        <ele>1217</ele>
        <time>2020-06-02T12:15:51Z</time>
      </trkpt>
      <trkpt lat="42.18716" lon="9.07559">
        <ele>1211</ele>
        <time>2020-06-02T12:16:51Z</time>
      </trkpt>
      <trkpt lat="42.18558" lon="9.07565">
        <ele>1180</ele>
        <time>2020-06-02T12:20:22Z</time>
      </trkpt>
      <trkpt lat="42.18496" lon="9.07604">
        <ele>1174</ele>
        <time>2020-06-02T12:21:53Z</time>
      </trkpt>
      <trkpt lat="42.18403" lon="9.07628">
        <ele>1157</ele>
        <time>2020-06-02T12:23:59Z</time>
      </trkpt>
      <trkpt lat="42.18161" lon="9.07808">
        <ele>1112</ele>
        <time>2020-06-02T12:30:08Z</time>
      </trkpt>
      <trkpt lat="42.18156" lon="9.07892">
        <ele>1111</ele>
        <time>2020-06-02T12:31:31Z</time>
      </trkpt>
      <trkpt lat="42.18128" lon="9.07984">
        <ele>1113</ele>
        <time>2020-06-02T12:33:10Z</time>
      </trkpt>
      <trkpt lat="42.18074" lon="9.08027">
        <ele>1096</ele>
        <time>2020-06-02T12:34:33Z</time>
      </trkpt>
      <trkpt lat="42.1795" lon="9.08117">
        <ele>1072</ele>
        <time>2020-06-02T12:37:41Z</time>
      </trkpt>
      <trkpt lat="42.17765" lon="9.0866">
        <ele>1045</ele>
        <time>2020-06-02T12:47:32Z</time>
      </trkpt>
      <trkpt lat="42.17673" lon="9.08767">
        <ele>1037</ele>
        <time>2020-06-02T12:50:14Z</time>
      </trkpt>
      <trkpt lat="42.17638" lon="9.08971">
        <ele>1046</ele>
        <time>2020-06-02T12:53:41Z</time>
      </trkpt>
      <trkpt lat="42.17582" lon="9.09061">
        <ele>1040</ele>
        <time>2020-06-02T12:55:38Z</time>
      </trkpt>
      <trkpt lat="42.17484" lon="9.09155">
        <ele>1035</ele>
        <time>2020-06-02T12:58:18Z</time>
      </trkpt>
      <trkpt lat="42.17426" lon="9.09237">
        <ele>1034</ele>
        <time>2020-06-02T13:00:10Z</time>
      </trkpt>
      <trkpt lat="42.17372" lon="9.09329">
        <ele>1033</ele>
        <time>2020-06-02T13:02:06Z</time>
      </trkpt>
      <trkpt lat="42.17355" lon="9.09477">
        <ele>1028</ele>
        <time>2020-06-02T13:04:34Z</time>
      </trkpt>
      <trkpt lat="42.1735" lon="9.09589">
        <ele>1036</ele>
        <time>2020-06-02T13:06:25Z</time>
      </trkpt>
      <trkpt lat="42.1731" lon="9.09666">
        <ele>1037</ele>
        <time>2020-06-02T13:07:58Z</time>
      </trkpt>
      <trkpt lat="42.17267" lon="9.09722">
        <ele>1031</ele>
        <time>2020-06-02T13:09:18Z</time>
      </trkpt>
      <trkpt lat="42.17197" lon="9.09756">
        <ele>1019</ele>
        <time>2020-06-02T13:10:57Z</time>
      </trkpt>
      <trkpt lat="42.1717" lon="9.09791">
        <ele>1014</ele>
        <time>2020-06-02T13:11:47Z</time>
      </trkpt>
      <trkpt lat="42.17132" lon="9.09816">
        <ele>1016</ele>
        <time>2020-06-02T13:12:44Z</time>
      </trkpt>
      <trkpt lat="42.17069" lon="9.0991">
        <ele>1005.4</ele>
      </trkpt>
      <trkpt lat="42.17037" lon="9.0993">
        <ele>999.6</ele>
        <time>2020-06-02T13:15:20Z</time>
      </trkpt>
      <trkpt lat="42.17006" lon="9.09941">
        <ele>991.3</ele>
        <time>2020-06-02T13:16:08Z</time>
      </trkpt>
      <trkpt lat="42.1696" lon="9.09965">
        <ele>975.7</ele>
        <time>2020-06-02T13:16:53Z</time>
      </trkpt>
      <trkpt lat="42.16913" lon="9.09998">
        <ele>963.4</ele>
        <time>2020-06-02T13:18:53Z</time>
      </trkpt>
      <trkpt lat="42.16889" lon="9.10024">
        <ele>956.1</ele>
      </trkpt>
      <trkpt lat="42.16898" lon="9.1004">
        <ele>952.9</ele>
        <time>2020-06-02T13:19:50Z</time>
      </trkpt>
      <trkpt lat="42.16873" lon="9.10065">
        <ele>954</ele>
        <time>2020-06-02T13:20:28Z</time>
      </trkpt>
      <trkpt lat="42.16855" lon="9.10083">
        <ele>945.9</ele>
        <time>2020-06-02T13:20:56Z</time>
      </trkpt>
      <trkpt lat="42.1683" lon="9.10089">
        <ele>939.4</ele>
        <time>2020-06-02T13:22:04Z</time>
      </trkpt>
      <trkpt lat="42.16799" lon="9.10128">
        <ele>941.6</ele>
      </trkpt>
      <trkpt lat="42.1677" lon="9.10088">
        <ele>951</ele>
      </trkpt>
      <trkpt lat="42.16737" lon="9.1006">
        <ele>959.9</ele>
        <time>2020-06-02T13:24:14Z</time>
      </trkpt>
      <trkpt lat="42.16693" lon="9.10037">
        <ele>970.2</ele>
      </trkpt>
      <trkpt lat="42.16658" lon="9.10031">
        <ele>1002</ele>
        <time>2020-06-02T13:25:33Z</time>
      </trkpt>
      <trkpt lat="42.16609" lon="9.09994">
        <ele>998.1</ele>
      </trkpt>
      <trkpt lat="42.16585" lon="9.09874">
        <ele>1021</ele>
        <time>2020-06-02T13:28:36Z</time>
      </trkpt>
      <trkpt lat="42.16547" lon="9.09801">
        <ele>1013.4</ele>
      </trkpt>
      <trkpt lat="42.16523" lon="9.0975">
        <ele>1013.4</ele>
        <time>2020-06-02T13:31:48Z</time>
      </trkpt>
      <trkpt lat="42.1651" lon="9.09722">
        <ele>1016.9</ele>
      </trkpt>
      <trkpt lat="42.16494" lon="9.09619">
        <ele>1022.9</ele>
        <time>2020-06-02T13:33:52Z</time>
      </trkpt>
      <trkpt lat="42.16459" lon="9.09534">
        <ele>1029.6</ele>
      </trkpt>
      <trkpt lat="42.16385" lon="9.09396">
        <ele>1042.9</ele>
      </trkpt>
      <trkpt lat="42.16334" lon="9.09354">
        <ele>1054.5</ele>
      </trkpt>
      <trkpt lat="42.16295" lon="9.09278">
        <ele>1061.6</ele>
      </trkpt>
      <trkpt lat="42.16232" lon="9.0915">
        <ele>1086.5</ele>
      </trkpt>
      <trkpt lat="42.16154" lon="9.08968">
        <ele>1101.6</ele>
        <time>2020-06-02T13:46:54Z</time>
      </trkpt>
      <trkpt lat="42.16131" lon="9.08885">
        <ele>1112.4</ele>
        <time>2020-06-02T13:48:38Z</time>
      </trkpt>
      <trkpt lat="42.16124" lon="9.08777">
        <ele>1121.9</ele>
        <time>2020-06-02T13:49:57Z</time>
      </trkpt>
      <trkpt lat="42.16124" lon="9.08722">
        <ele>1126.4</ele>
        <time>2020-06-02T13:51:01Z</time>
      </trkpt>
      <trkpt lat="42.161" lon="9.0861">
        <ele>1139.9</ele>
        <time>2020-06-02T13:53:12Z</time>
      </trkpt>
      <trkpt lat="42.16088" lon="9.08539">
        <ele>1149.3</ele>
        <time>2020-06-02T13:55:24Z</time>
      </trkpt>
      <trkpt lat="42.16068" lon="9.08434">
        <ele>1162.2</ele>
      </trkpt>
      <trkpt lat="42.16049" lon="9.08406">
        <ele>1170.3</ele>
        <time>2020-06-02T13:56:51Z</time>
      </trkpt>
      <trkpt lat="42.16039" lon="9.08329">
        <ele>1183.5</ele>
      </trkpt>
      <trkpt lat="42.16062" lon="9.08176">
        <ele>1190.6</ele>
        <time>2020-06-02T13:59:54Z</time>
      </trkpt>
      <trkpt lat="42.16066" lon="9.08142">
        <ele>1193.9</ele>
        <time>2020-06-02T14:01:40Z</time>
      </trkpt>
      <trkpt lat="42.16101" lon="9.08156">
        <ele>1195.6</ele>
      </trkpt>
      <trkpt lat="42.16114" lon="9.08153">
        <ele>1200.1</ele>
        <time>2020-06-02T14:03:04Z</time>
      </trkpt>
      <trkpt lat="42.16095" lon="9.08119">
        <ele>1215</ele>
        <time>2020-06-02T14:04:20Z</time>
      </trkpt>
      <trkpt lat="42.16084" lon="9.08037">
        <ele>1239</ele>
        <time>2020-06-02T14:05:43Z</time>
      </trkpt>
      <trkpt lat="42.16051" lon="9.07967">
        <ele>1256</ele>
        <time>2020-06-02T14:07:05Z</time>
      </trkpt>
      <trkpt lat="42.15995" lon="9.079">
        <ele>1267</ele>
        <time>2020-06-02T14:08:45Z</time>
      </trkpt>
      <trkpt lat="42.15887" lon="9.07821">
        <ele>1286</ele>
        <time>2020-06-02T14:11:29Z</time>
      </trkpt>
      <trkpt lat="42.15804" lon="9.07771">
        <ele>1288</ele>
        <time>2020-06-02T14:13:30Z</time>
      </trkpt>
      <trkpt lat="42.15752" lon="9.0772">
        <ele>1292</ele>
        <time>2020-06-02T14:14:56Z</time>
      </trkpt>
      <trkpt lat="42.15645" lon="9.07546">
        <ele>1343</ele>
        <time>2020-06-02T14:18:40Z</time>
      </trkpt>
      <trkpt lat="42.15572" lon="9.07538">
        <ele>1340</ele>
        <time>2020-06-02T14:20:17Z</time>
      </trkpt>
      <trkpt lat="42.15515" lon="9.07424">
        <ele>1373</ele>
        <time>2020-06-02T14:22:33Z</time>
      </trkpt>
      <trkpt lat="42.15349" lon="9.07409">
        <ele>1385</ele>
        <time>2020-06-02T14:26:15Z</time>
      </trkpt>
    </trkseg>
  </trk>
</gpx>